Time;durP1;ratioP1;P1;durP2;ratioP2;P2;SDS_P1;SDS_P2;PMS_P1;PMS_P2;Temp;Humidity;BMP_temperature;BMP_pressure;BME280_temperature;BME280_humidity;BME280_pressure;Samples;Min_cycle;Max_cycle;Signal;HPM_P1;HPM_P2
2022/08/02 00:00:19;;;;;;;;;5.00;3.00;;;;;24.03;81.87;100566.53;6308889;22;45206;-87
2022/08/02 00:02:45;;;;;;;;;6.67;4.33;;;;;23.99;81.82;100567.50;6306898;22;45237;-87
2022/08/02 00:05:12;;;;;;;;;5.33;4.33;;;;;23.93;82.31;100556.84;6304759;22;45281;-89
2022/08/02 00:07:37;;;;;;;;;4.33;3.33;;;;;23.91;82.43;100559.56;6329412;22;45297;-88
2022/08/02 00:10:06;;;;;;;;;4.33;4.33;;;;;23.89;82.63;100547.97;6305403;22;45299;-88
2022/08/02 00:12:32;;;;;;;;;5.33;5.33;;;;;23.84;82.74;100537.31;6303481;22;47268;-88
2022/08/02 00:14:57;;;;;;;;;5.33;3.67;;;;;23.83;82.87;100548.06;6305108;22;45284;-88
2022/08/02 00:17:22;;;;;;;;;5.33;4.00;;;;;23.78;82.96;100540.09;6304156;22;47600;-88
2022/08/02 00:19:48;;;;;;;;;5.67;4.00;;;;;23.76;83.41;100541.91;6304617;22;45318;-88
2022/08/02 00:22:13;;;;;;;;;3.00;3.00;;;;;23.73;83.50;100537.47;6304568;22;46109;-88
2022/08/02 00:24:39;;;;;;;;;5.33;3.33;;;;;23.70;83.57;100533.94;6305239;22;45313;-88
2022/08/02 00:27:07;;;;;;;;;5.00;3.33;;;;;23.68;83.73;100538.44;6304052;22;45297;-88
2022/08/02 00:29:32;;;;;;;;;3.67;3.33;;;;;23.65;84.09;100531.31;6305260;22;45233;-86
2022/08/02 00:31:57;;;;;;;;;5.00;4.67;;;;;23.62;83.85;100532.25;6304264;22;46154;-86
2022/08/02 00:34:23;;;;;;;;;3.00;3.00;;;;;23.59;84.11;100521.56;6328251;22;56582;-88
2022/08/02 00:36:48;;;;;;;;;4.33;3.00;;;;;23.57;84.27;100533.22;6305307;22;45250;-87
2022/08/02 00:39:14;;;;;;;;;4.67;4.67;;;;;23.56;84.40;100532.31;6305354;22;45336;-87
2022/08/02 00:41:47;;;;;;;;;4.67;4.00;;;;;23.50;84.40;100517.19;6275466;22;47147;-88
2022/08/02 00:44:14;;;;;;;;;3.00;3.00;;;;;23.50;84.49;100525.22;6304989;22;45868;-88
2022/08/02 00:46:39;;;;;;;;;3.67;3.67;;;;;23.47;84.99;100521.69;6304100;22;45428;-87
2022/08/02 00:49:05;;;;;;;;;6.00;5.00;;;;;23.43;84.90;100524.41;6304323;22;45333;-87
2022/08/02 00:51:30;;;;;;;;;4.00;4.00;;;;;23.41;84.97;100522.66;6304567;22;46053;-87
2022/08/02 00:53:56;;;;;;;;;3.67;3.67;;;;;23.38;85.04;100526.25;6304928;22;45304;-87
2022/08/02 00:56:21;;;;;;;;;3.00;3.00;;;;;23.35;85.51;100525.41;6303607;22;45277;-87
2022/08/02 00:58:46;;;;;;;;;4.00;4.00;;;;;23.31;85.54;100516.50;6305185;22;45313;-88
2022/08/02 01:01:11;;;;;;;;;2.67;2.67;;;;;23.28;85.43;100513.88;6304299;22;45455;-87
2022/08/02 01:03:37;;;;;;;;;4.00;4.00;;;;;23.25;85.63;100517.47;6302958;22;56871;-88
2022/08/02 01:06:02;;;;;;;;;4.00;4.00;;;;;23.24;86.00;100523.75;6305387;22;45338;-89
2022/08/02 01:08:27;;;;;;;;;3.00;3.00;;;;;23.22;86.25;100520.16;6304659;22;45427;-88
2022/08/02 01:10:53;;;;;;;;;4.00;4.00;;;;;23.19;85.98;100514.88;6303840;22;46391;-88
2022/08/02 01:13:19;;;;;;;;;7.00;3.00;;;;;23.16;86.04;100514.91;6327972;22;64408;-88
2022/08/02 01:15:50;;;;;;;;;3.67;3.67;;;;;23.14;86.48;100514.91;6304589;22;45336;-87
2022/08/02 01:18:40;;;;;;;;;4.00;4.00;;;;;23.13;86.62;100513.16;6303758;22;45368;-87
2022/08/02 01:21:34;;;;;;;;;3.00;3.00;;;;;23.09;86.35;100516.78;6304463;22;45768;-88
2022/08/02 01:24:19;;;;;;;;;4.67;3.33;;;;;23.06;86.48;100524.81;6328784;22;45433;-88
2022/08/02 01:27:23;;;;;;;;;3.00;3.00;;;;;23.02;86.64;100525.75;6304009;22;45304;-88
2022/08/02 01:29:55;;;;;;;;;5.00;4.00;;;;;22.98;87.14;100522.22;6269303;22;45599;-88
2022/08/02 01:32:30;;;;;;;;;5.00;4.00;;;;;22.96;87.04;100521.38;6243281;22;47289;-88
2022/08/02 01:35:02;;;;;;;;;5.00;5.00;;;;;22.94;87.46;100524.03;6269890;22;45436;-88
2022/08/02 01:37:43;;;;;;;;;2.33;2.33;;;;;22.91;87.33;100524.06;6270380;22;45355;-88
2022/08/02 01:40:12;;;;;;;;;3.00;3.00;;;;;22.88;87.47;100518.75;6270719;22;45293;-88
2022/08/02 01:42:44;;;;;;;;;3.33;3.33;;;;;22.86;87.43;100520.53;6269557;22;45368;-88
2022/08/02 01:45:12;;;;;;;;;2.33;2.00;;;;;22.82;87.96;100524.16;6270067;22;45268;-88
2022/08/02 01:47:41;;;;;;;;;4.00;3.67;;;;;22.80;87.58;100529.53;6274097;22;45332;-88
2022/08/02 01:50:11;;;;;;;;;4.00;4.00;;;;;22.75;88.02;100524.25;6247443;22;45570;-87
2022/08/02 01:52:42;;;;;;;;;3.33;3.33;;;;;22.71;88.00;100513.56;6273950;22;46306;-87
2022/08/02 01:55:12;;;;;;;;;3.00;3.00;;;;;22.70;87.98;100514.47;6273596;22;45429;-87
2022/08/02 01:57:44;;;;;;;;;3.00;3.00;;;;;22.66;88.32;100521.59;6271465;22;45412;-88
2022/08/02 02:00:11;;;;;;;;;3.33;3.00;;;;;22.62;88.34;100515.41;6269893;22;45326;-88
2022/08/02 02:02:40;;;;;;;;;4.67;3.00;;;;;22.61;88.71;100520.75;6270818;22;46988;-87
2022/08/02 02:05:10;;;;;;;;;2.00;2.00;;;;;22.59;88.46;100512.75;6246412;22;45689;-87
2022/08/02 02:07:37;;;;;;;;;3.00;3.00;;;;;22.55;88.53;100509.19;6297646;22;45267;-87
2022/08/02 02:10:04;;;;;;;;;4.00;4.00;;;;;22.53;88.44;100505.66;6311061;22;45370;-87
2022/08/02 02:12:33;;;;;;;;;3.00;2.00;;;;;22.52;89.10;100509.22;6312060;22;46184;-88
2022/08/02 02:15:01;;;;;;;;;3.00;3.00;;;;;22.48;88.73;100496.78;6308194;22;45216;-87
2022/08/02 02:17:28;;;;;;;;;4.00;3.00;;;;;22.46;88.73;100495.03;6304147;22;45424;-87
2022/08/02 02:19:56;;;;;;;;;3.67;2.67;;;;;22.48;88.94;100501.22;6303676;22;45335;-88
2022/08/02 02:22:22;;;;;;;;;5.00;2.00;;;;;22.44;88.83;100505.75;6303804;22;45410;-88
2022/08/02 02:24:47;;;;;;;;;4.00;3.00;;;;;22.42;89.09;100505.72;6304489;22;45435;-87
2022/08/02 02:27:15;;;;;;;;;4.00;2.33;;;;;22.37;89.29;100496.84;6303705;22;45234;-88
2022/08/02 02:29:45;;;;;;;;;3.00;3.00;;;;;22.37;89.17;100496.00;6304843;22;45170;-88
2022/08/02 02:32:14;;;;;;;;;4.00;4.00;;;;;22.33;89.60;100489.78;6303558;22;46466;-88
2022/08/02 02:34:42;;;;;;;;;5.00;5.00;;;;;22.29;89.55;100494.25;6303988;22;45290;-87
2022/08/02 02:37:21;;;;;;;;;4.67;3.00;;;;;22.30;89.90;100492.47;6304551;22;45344;-87
2022/08/02 02:39:50;;;;;;;;;4.00;4.00;;;;;22.24;90.35;100488.03;6304565;22;45380;-88
2022/08/02 02:42:17;;;;;;;;;5.00;3.67;;;;;22.25;90.04;100489.84;6302250;22;45351;-88
2022/08/02 02:44:45;;;;;;;;;5.33;5.33;;;;;22.24;90.31;100489.84;6304805;22;45337;-87
2022/08/02 02:47:11;;;;;;;;;3.00;3.00;;;;;22.21;90.33;100486.28;6303988;22;45253;-87
2022/08/02 02:49:38;;;;;;;;;4.00;4.00;;;;;22.17;90.57;100481.88;6304048;22;45344;-88
2022/08/02 02:52:05;;;;;;;;;4.00;4.00;;;;;22.18;90.77;100485.44;6304064;22;45658;-87
2022/08/02 02:54:33;;;;;;;;;6.00;4.00;;;;;22.13;90.83;100480.13;6304175;22;45257;-88
2022/08/02 02:56:59;;;;;;;;;3.33;3.00;;;;;22.12;91.20;100481.00;6302617;22;45314;-88
2022/08/02 02:59:26;;;;;;;;;3.67;3.00;;;;;22.10;90.96;100477.47;6304471;22;45332;-88
2022/08/02 03:01:52;;;;;;;;;6.00;3.67;;;;;22.09;91.40;100475.69;6327458;22;47039;-88
2022/08/02 03:04:19;;;;;;;;;4.00;3.33;;;;;22.05;91.38;100469.50;6303652;22;45371;-87
2022/08/02 03:06:45;;;;;;;;;4.33;3.00;;;;;22.01;91.24;100472.22;6304395;22;45298;-87
2022/08/02 03:09:11;;;;;;;;;4.67;3.67;;;;;21.99;91.53;100475.75;6276206;22;45254;-88
2022/08/02 03:11:37;;;;;;;;;4.33;4.00;;;;;22.00;91.26;100479.31;6300644;22;47877;-88
2022/08/02 03:14:07;;;;;;;;;4.33;3.67;;;;;21.98;91.53;100478.47;6303932;22;45334;-87
2022/08/02 03:16:32;;;;;;;;;4.00;4.00;;;;;21.95;91.89;100473.13;6275793;22;45291;-88
2022/08/02 03:19:01;;;;;;;;;4.00;3.33;;;;;21.93;91.78;100475.78;6303781;22;45421;-88
2022/08/02 03:21:27;;;;;;;;;4.67;4.00;;;;;21.88;92.15;100459.78;6275998;22;46299;-88
2022/08/02 03:23:52;;;;;;;;;3.00;3.00;;;;;21.88;92.33;100470.47;6303760;22;45350;-89
2022/08/02 03:26:17;;;;;;;;;4.33;4.00;;;;;21.85;92.25;100461.59;6302567;22;48192;-88
2022/08/02 03:28:43;;;;;;;;;4.33;4.00;;;;;21.82;92.14;100459.81;6304347;22;45336;-88
2022/08/02 03:31:08;;;;;;;;;4.00;4.00;;;;;21.79;92.55;100457.16;6303993;22;45815;-87
2022/08/02 03:33:35;;;;;;;;;5.00;5.00;;;;;21.78;92.69;100460.72;6302797;22;45368;-88
2022/08/02 03:36:12;;;;;;;;;2.00;2.00;;;;;21.74;92.81;100462.53;6305085;22;45288;-88
2022/08/02 03:38:40;;;;;;;;;4.00;4.00;;;;;21.74;92.70;100462.53;6276237;22;45293;-87
2022/08/02 03:41:07;;;;;;;;;2.67;2.67;;;;;21.73;93.17;100465.19;6305496;22;45439;-87
2022/08/02 03:43:35;;;;;;;;;4.67;4.67;;;;;21.67;93.01;100458.13;6304252;22;45443;-88
2022/08/02 03:46:03;;;;;;;;;4.00;4.00;;;;;21.69;92.97;100466.13;6307198;22;45296;-87
2022/08/02 03:48:31;;;;;;;;;5.00;5.00;;;;;21.65;93.31;100459.91;6305860;22;45264;-88
2022/08/02 03:50:58;;;;;;;;;4.00;4.00;;;;;21.65;93.15;100457.22;6305539;22;45343;-87
2022/08/02 03:53:24;;;;;;;;;3.00;3.00;;;;;21.61;93.40;100456.38;6303718;22;45491;-88
2022/08/02 03:55:49;;;;;;;;;5.00;4.00;;;;;21.61;93.17;100460.81;6302551;22;45361;-88
2022/08/02 03:58:18;;;;;;;;;5.00;4.00;;;;;21.58;93.68;100453.72;6303738;22;45338;-87
2022/08/02 04:00:44;;;;;;;;;3.00;3.00;;;;;21.57;93.69;100456.41;6304117;22;46391;-88
2022/08/02 04:03:09;;;;;;;;;4.00;4.00;;;;;21.54;93.57;100451.97;6326595;22;45435;-88
2022/08/02 04:05:34;;;;;;;;;3.00;3.00;;;;;21.52;93.94;100454.63;6328307;22;45411;-88
2022/08/02 04:08:00;;;;;;;;;3.00;3.00;;;;;21.50;93.88;100445.75;6303899;22;45328;-88
2022/08/02 04:10:25;;;;;;;;;3.00;3.00;;;;;21.50;94.21;100444.84;6302798;22;46510;-88
2022/08/02 04:12:51;;;;;;;;;3.00;3.00;;;;;21.49;94.41;100456.44;6303105;22;45216;-88
2022/08/02 04:15:17;;;;;;;;;6.00;2.67;;;;;21.47;94.13;100451.09;6303912;22;45242;-87
2022/08/02 04:17:48;;;;;;;;;3.00;2.67;;;;;21.44;94.31;100449.31;6303340;22;45375;-86
2022/08/02 04:20:18;;;;;;;;;4.00;4.00;;;;;21.40;94.38;100442.22;6303005;22;45468;-88
2022/08/02 04:22:48;;;;;;;;;5.33;4.33;;;;;21.40;94.51;100452.00;6303452;22;45355;-88
2022/08/02 04:25:15;;;;;;;;;4.33;3.00;;;;;21.39;94.15;100451.13;6274997;22;45374;-88
2022/08/02 04:27:42;;;;;;;;;3.00;3.00;;;;;21.31;94.28;100445.81;6303402;22;45257;-88
2022/08/02 04:30:08;;;;;;;;;5.00;3.67;;;;;21.36;94.17;100451.16;6303612;22;46644;-88
2022/08/02 04:32:34;;;;;;;;;3.00;3.00;;;;;21.34;94.65;100457.41;6302934;22;45593;-87
2022/08/02 04:35:00;;;;;;;;;4.00;3.00;;;;;21.30;95.03;100446.72;6303122;22;45671;-89
2022/08/02 04:37:26;;;;;;;;;3.00;3.00;;;;;21.33;95.15;100451.16;6275669;22;45677;-88
2022/08/02 04:39:51;;;;;;;;;3.33;3.33;;;;;21.31;95.39;100445.81;6302677;22;46374;-88
2022/08/02 04:42:21;;;;;;;;;3.33;3.33;;;;;21.32;94.98;100454.72;6302448;22;45251;-88
2022/08/02 04:44:47;;;;;;;;;4.00;4.00;;;;;21.29;95.14;100446.72;6304783;22;45383;-87
2022/08/02 04:47:12;;;;;;;;;2.33;2.33;;;;;21.30;95.44;100444.06;6304358;22;45318;-87
2022/08/02 04:49:38;;;;;;;;;4.67;4.00;;;;;21.30;95.33;100444.06;6304244;22;46107;-87
2022/08/02 04:52:03;;;;;;;;;4.33;3.00;;;;;21.31;95.70;100439.63;6305157;22;48888;-86
2022/08/02 04:54:28;;;;;;;;;6.00;5.00;;;;;21.32;95.67;100446.72;6307290;22;45332;-86
2022/08/02 04:56:54;;;;;;;;;3.00;3.00;;;;;21.32;96.04;100447.59;6303324;22;54984;-88
2022/08/02 04:59:19;;;;;;;;;4.33;4.00;;;;;21.34;95.69;100452.06;6305032;22;45416;-88
2022/08/02 05:01:45;;;;;;;;;2.00;2.00;;;;;21.37;95.77;100454.69;6304240;22;45356;-87
2022/08/02 05:04:10;;;;;;;;;4.00;3.00;;;;;21.41;96.15;100454.69;6304532;22;45290;-87
2022/08/02 05:06:35;;;;;;;;;3.67;3.67;;;;;21.44;95.89;100451.13;6305050;22;45357;-88
2022/08/02 05:09:00;;;;;;;;;3.67;3.67;;;;;21.49;95.93;100445.75;6311177;22;45425;-86
2022/08/02 05:11:26;;;;;;;;;4.00;4.00;;;;;21.53;96.04;100458.19;6304469;22;45317;-88
2022/08/02 05:13:51;;;;;;;;;3.00;3.00;;;;;21.57;96.05;100453.72;6304660;22;45270;-88
2022/08/02 05:16:16;;;;;;;;;3.00;3.00;;;;;21.59;96.49;100451.94;6303305;22;45407;-88
2022/08/02 05:18:42;;;;;;;;;4.00;4.00;;;;;21.62;96.36;100444.78;6304064;22;48276;-88
2022/08/02 05:21:08;;;;;;;;;3.67;3.00;;;;;21.69;96.03;100447.44;6304666;22;45306;-87
2022/08/02 05:23:33;;;;;;;;;3.67;3.67;;;;;21.75;95.98;100453.59;6304136;22;45404;-86
2022/08/02 05:25:59;;;;;;;;;3.00;3.00;;;;;21.83;95.95;100466.91;6307584;22;45361;-84
2022/08/02 05:28:24;;;;;;;;;2.00;2.00;;;;;21.88;95.61;100474.94;6308903;22;52064;-88
2022/08/02 05:30:50;;;;;;;;;2.67;2.67;;;;;21.92;95.70;100470.47;6312493;22;45417;-86
2022/08/02 05:33:15;;;;;;;;;3.00;3.00;;;;;21.98;95.72;100467.78;6308769;22;45304;-86
2022/08/02 05:35:41;;;;;;;;;3.00;3.00;;;;;22.03;95.44;100478.41;6309951;22;45395;-87
2022/08/02 05:38:06;;;;;;;;;3.00;3.00;;;;;22.12;94.89;100480.13;6309883;22;46488;-87
2022/08/02 05:40:32;;;;;;;;;3.00;3.00;;;;;22.16;94.73;100485.44;6309319;22;45282;-87
2022/08/02 05:42:57;;;;;;;;;2.00;2.00;;;;;22.22;94.99;100481.84;6306079;22;45166;-87
2022/08/02 05:45:22;;;;;;;;;3.00;3.00;;;;;22.25;94.79;100470.22;6304417;22;48376;-86
2022/08/02 05:47:48;;;;;;;;;2.33;2.00;;;;;22.33;94.75;100479.09;6303953;22;45419;-88
2022/08/02 05:50:13;;;;;;;;;4.00;3.00;;;;;22.40;94.48;100485.25;6304129;22;45369;-87
2022/08/02 05:52:44;;;;;;;;;3.33;2.00;;;;;22.47;94.38;100491.47;6305040;22;45325;-86
2022/08/02 05:55:21;;;;;;;;;4.00;4.00;;;;;22.52;94.09;100493.16;6309984;22;45460;-86
2022/08/02 05:58:12;;;;;;;;;6.33;3.00;;;;;22.59;93.84;100502.03;6306134;22;45458;-87
2022/08/02 06:00:40;;;;;;;;;4.67;4.67;;;;;22.65;93.31;100499.28;6304878;22;45348;-88
2022/08/02 06:03:17;;;;;;;;;2.00;1.33;;;;;22.73;93.55;100498.41;6303320;22;45436;-87
2022/08/02 06:06:09;;;;;;;;;5.00;3.00;;;;;22.79;92.75;100505.44;6304346;22;45437;-87
2022/08/02 06:08:41;;;;;;;;;4.00;4.00;;;;;22.80;92.78;100500.09;6295088;22;46428;-88
2022/08/02 06:11:12;;;;;;;;;4.00;3.00;;;;;22.90;93.05;100505.34;6303667;22;45290;-88
2022/08/02 06:13:39;;;;;;;;;3.00;3.00;;;;;22.95;92.71;100499.06;6304227;22;45398;-86
2022/08/02 06:16:05;;;;;;;;;3.00;3.00;;;;;23.01;92.22;100508.81;6304856;22;45365;-87
2022/08/02 06:18:32;;;;;;;;;5.00;3.00;;;;;23.08;92.48;100512.31;6302768;22;46485;-87
2022/08/02 06:21:02;;;;;;;;;3.00;3.00;;;;;23.12;92.33;100510.50;6304105;22;45646;-87
2022/08/02 06:23:28;;;;;;;;;4.00;4.00;;;;;23.17;92.30;100516.66;6304335;22;45334;-88
2022/08/02 06:25:56;;;;;;;;;5.00;5.00;;;;;23.21;91.98;100516.63;6275549;22;45405;-88
2022/08/02 06:28:22;;;;;;;;;4.33;4.33;;;;;23.25;92.10;100517.47;6276174;22;48054;-88
2022/08/02 06:30:48;;;;;;;;;5.00;3.33;;;;;23.27;92.08;100512.97;6304745;22;45337;-88
2022/08/02 06:33:14;;;;;;;;;4.00;4.00;;;;;23.36;91.83;100522.72;6303228;22;45394;-88
2022/08/02 06:35:50;;;;;;;;;4.00;2.67;;;;;23.43;91.18;100532.44;6304377;22;45220;-88
2022/08/02 06:38:24;;;;;;;;;3.00;3.00;;;;;23.48;91.14;100535.06;6304184;22;45317;-88
2022/08/02 06:41:04;;;;;;;;;3.00;3.00;;;;;23.53;90.52;100546.63;6303933;22;45234;-88
2022/08/02 06:43:59;;;;;;;;;3.00;3.00;;;;;23.61;90.16;100549.22;6304314;22;45348;-87
2022/08/02 06:46:24;;;;;;;;;4.00;3.00;;;;;23.68;89.95;100555.41;6303590;22;45288;-87
2022/08/02 06:48:50;;;;;;;;;3.67;3.67;;;;;23.74;90.42;100547.28;6303295;22;45658;-88
2022/08/02 06:51:16;;;;;;;;;3.00;3.00;;;;;23.84;90.29;100553.38;6302401;22;45311;-87
2022/08/02 06:53:42;;;;;;;;;4.00;4.00;;;;;23.92;90.13;100558.66;6304149;22;45391;-87
2022/08/02 06:56:08;;;;;;;;;4.67;4.67;;;;;24.03;89.82;100571.00;6303324;22;45440;-87
2022/08/02 06:58:33;;;;;;;;;2.00;2.00;;;;;24.07;89.46;100568.25;6304261;22;46286;-88
2022/08/02 07:00:58;;;;;;;;;4.00;4.00;;;;;24.13;89.44;100574.44;6304504;22;45215;-87
2022/08/02 07:03:27;;;;;;;;;2.00;2.00;;;;;24.18;88.96;100578.84;6303256;22;45255;-88
2022/08/02 07:05:52;;;;;;;;;3.67;3.67;;;;;24.22;89.13;100579.69;6304003;22;45298;-88
2022/08/02 07:08:18;;;;;;;;;3.00;3.00;;;;;24.28;88.65;100585.00;6303921;22;45600;-87
2022/08/02 07:10:44;;;;;;;;;3.33;3.33;;;;;24.34;88.42;100584.00;6304360;22;45304;-87
2022/08/02 07:13:10;;;;;;;;;1.67;1.67;;;;;24.39;88.60;100583.94;6303981;22;45343;-87
2022/08/02 07:15:38;;;;;;;;;3.33;2.33;;;;;24.46;88.39;100580.25;6304369;22;45288;-87
2022/08/02 07:18:05;;;;;;;;;2.67;2.67;;;;;24.49;87.88;100588.25;6303021;22;46782;-88
2022/08/02 07:20:31;;;;;;;;;5.00;3.00;;;;;24.59;87.53;100604.19;6303918;22;45214;-87
2022/08/02 07:22:56;;;;;;;;;1.33;1.33;;;;;24.64;87.81;100602.31;6308782;22;45183;-89
2022/08/02 07:25:22;;;;;;;;;3.67;2.33;;;;;24.70;87.31;100612.09;6306452;22;61782;-86
2022/08/02 07:27:47;;;;;;;;;1.33;1.33;;;;;24.73;87.00;100604.88;6307400;22;46103;-86
2022/08/02 07:30:12;;;;;;;;;3.00;3.00;;;;;24.76;86.83;100610.22;6307749;22;61906;-88
2022/08/02 07:32:38;;;;;;;;;2.00;2.00;;;;;24.86;86.71;100613.63;6306825;22;45361;-88
2022/08/02 07:35:04;;;;;;;;;2.67;1.67;;;;;24.91;86.30;100618.91;6305571;22;45362;-87
2022/08/02 07:37:33;;;;;;;;;3.33;2.00;;;;;24.97;86.29;100620.59;6306748;22;45621;-87
2022/08/02 07:39:58;;;;;;;;;2.67;2.67;;;;;25.02;85.71;100632.19;6304295;22;45293;-88
2022/08/02 07:42:24;;;;;;;;;2.33;2.33;;;;;25.06;85.56;100624.94;6303365;22;45328;-88
2022/08/02 07:44:50;;;;;;;;;3.00;2.67;;;;;25.10;85.40;100632.06;6304200;22;45349;-88
2022/08/02 07:47:15;;;;;;;;;1.00;1.00;;;;;25.18;85.27;100638.16;6303141;22;45300;-88
2022/08/02 07:49:41;;;;;;;;;4.33;2.67;;;;;25.25;84.56;100643.44;6304985;22;45599;-88
2022/08/02 07:52:06;;;;;;;;;3.00;1.67;;;;;25.29;84.77;100643.34;6305872;22;45348;-88
2022/08/02 07:54:32;;;;;;;;;1.00;1.00;;;;;25.31;84.27;100648.66;6303761;22;45206;-88
2022/08/02 07:56:57;;;;;;;;;0.00;0.00;;;;;25.36;84.49;100646.78;6302072;22;45348;-86
2022/08/02 07:59:23;;;;;;;;;2.00;1.00;;;;;25.44;84.54;100650.22;6304276;22;45244;-87
2022/08/02 08:01:48;;;;;;;;;4.33;3.00;;;;;25.55;84.48;100646.44;6302978;22;51255;-90
2022/08/02 08:04:15;;;;;;;;;2.00;2.00;;;;;25.62;84.15;100647.22;6303762;22;45439;-90
2022/08/02 08:06:40;;;;;;;;;3.33;2.33;;;;;25.71;83.89;100647.03;6304179;22;46198;-90
2022/08/02 08:09:05;;;;;;;;;2.33;2.33;;;;;25.76;83.84;100639.81;6304076;22;45355;-89
2022/08/02 08:11:31;;;;;;;;;2.00;1.00;;;;;25.84;83.33;100649.50;6303326;22;45281;-90
2022/08/02 08:13:56;;;;;;;;;1.33;1.00;;;;;25.93;83.35;100648.41;6275876;22;45587;-90
2022/08/02 08:16:21;;;;;;;;;2.33;2.33;;;;;25.93;82.90;100643.03;6302937;22;46197;-88
2022/08/02 08:18:47;;;;;;;;;3.00;2.00;;;;;26.02;82.85;100648.25;6304585;22;45305;-90
2022/08/02 08:21:12;;;;;;;;;2.67;2.00;;;;;26.02;82.67;100632.13;6306568;22;45407;-88
2022/08/02 08:23:37;;;;;;;;;2.00;2.00;;;;;26.16;82.53;100650.63;6277025;22;45400;-89
2022/08/02 08:26:03;;;;;;;;;2.67;2.67;;;;;26.22;82.06;100650.50;6304223;22;45420;-89
2022/08/02 08:28:28;;;;;;;;;4.00;3.00;;;;;26.28;81.81;100646.81;6303228;22;45734;-88
2022/08/02 08:30:54;;;;;;;;;1.67;1.33;;;;;26.31;81.19;100651.22;6305157;22;45744;-87
2022/08/02 08:33:19;;;;;;;;;1.00;1.00;;;;;26.38;81.29;100642.09;6304280;22;45629;-89
2022/08/02 08:35:44;;;;;;;;;1.33;1.33;;;;;26.50;81.39;100642.75;6304738;22;51584;-91
2022/08/02 08:38:10;;;;;;;;;4.00;2.00;;;;;26.53;81.45;100637.28;6304944;22;45273;-88
2022/08/02 08:40:36;;;;;;;;;1.00;1.00;;;;;26.70;81.11;100650.34;6313606;22;45194;-86
2022/08/02 08:43:02;;;;;;;;;0.67;0.67;;;;;26.83;80.68;100656.31;6318520;22;45301;-91
2022/08/02 08:45:27;;;;;;;;;2.00;2.00;;;;;26.86;80.49;100640.09;6281029;22;48365;-89
2022/08/02 08:48:00;;;;;;;;;3.00;1.00;;;;;27.07;80.87;100658.44;6304946;22;45235;-92
2022/08/02 08:50:32;;;;;;;;;1.00;1.00;;;;;27.14;80.17;100640.38;6305478;22;45387;-91
2022/08/02 08:53:06;;;;;;;;;1.00;1.00;;;;;27.31;80.32;100653.38;6309550;22;45218;-94
2022/08/02 08:55:33;;;;;;;;;2.00;2.00;;;;;27.39;79.88;100651.38;6311214;22;47446;-94
2022/08/02 08:58:00;;;;;;;;;2.00;2.00;;;;;27.46;78.90;100654.75;6285760;22;45274;-91
2022/08/02 09:00:26;;;;;;;;;4.67;3.67;;;;;27.51;78.63;100660.03;6310407;22;45396;-93
2022/08/02 09:02:52;;;;;;;;;4.00;2.00;;;;;27.52;78.94;100662.66;6311350;22;45285;-92
2022/08/02 09:05:18;;;;;;;;;4.00;2.00;;;;;27.50;78.83;100647.47;6284790;22;47622;-91
2022/08/02 09:07:50;;;;;;;;;1.00;1.00;;;;;27.50;78.70;100644.78;6306774;22;45269;-90
2022/08/02 09:10:42;;;;;;;;;1.00;1.00;;;;;27.57;79.13;100651.78;6286750;22;45298;-95
2022/08/02 09:13:16;;;;;;;;;2.00;2.00;;;;;27.66;78.87;100650.63;6312870;22;45290;-88
2022/08/02 09:15:52;;;;;;;;;2.00;1.00;;;;;27.70;78.54;100644.25;6337770;22;47064;-88
2022/08/02 09:18:17;;;;;;;;;1.00;1.00;;;;;27.77;78.68;100635.03;6310579;22;45332;-88
2022/08/02 09:20:56;;;;;;;;;2.67;2.67;;;;;27.94;78.38;100640.88;6317565;22;45515;-96
2022/08/02 09:23:25;;;;;;;;;3.33;2.00;;;;;28.03;78.11;100640.63;6321388;22;44792;-96
2022/08/02 09:25:59;;;;;;;;;2.33;1.33;;;;;28.20;77.95;100644.59;6292825;22;47076;-96
2022/08/02 09:28:30;;;;;;;;;2.33;2.00;;;;;28.31;77.83;100641.59;6292520;22;45187;-96
2022/08/02 09:30:57;;;;;;;;;1.00;1.00;;;;;28.41;77.61;100645.75;6317495;22;45244;-96
2022/08/02 09:33:27;;;;;;;;;1.67;1.67;;;;;28.51;77.36;100646.38;6316124;22;45543;-96
2022/08/02 09:36:13;;;;;;;;;3.00;3.00;;;;;28.60;76.95;100647.03;6318209;22;47436;-96
2022/08/02 09:38:50;;;;;;;;;3.00;2.00;;;;;28.66;76.95;100636.00;6316128;22;45284;-96
2022/08/02 09:41:23;;;;;;;;;3.00;2.00;;;;;28.74;76.51;100635.75;6315337;22;45246;-96
2022/08/02 09:43:49;;;;;;;;;4.00;3.00;;;;;28.78;76.62;100646.44;6314274;22;45455;-96
2022/08/02 09:46:26;;;;;;;;;2.33;2.33;;;;;28.91;76.87;100640.63;6320800;22;47080;-96
2022/08/02 09:49:04;;;;;;;;;2.67;2.33;;;;;29.04;76.71;100635.69;6286232;22;45361;-92
2022/08/02 09:51:30;;;;;;;;;1.33;1.33;;;;;29.20;76.71;100638.75;6309287;22;45354;-96
2022/08/02 09:53:58;;;;;;;;;2.00;2.00;;;;;29.55;76.32;100622.22;6286673;22;45242;-96
2022/08/02 09:56:26;;;;;;;;;2.00;1.00;;;;;29.97;75.40;100633.28;6310559;22;47362;-95
2022/08/02 10:01:32;;;;;;;;;2.00;2.00;;;;;30.46;74.37;100634.16;6336060;22;45023;-96
2022/08/02 10:04:03;;;;;;;;;2.00;2.00;;;;;30.77;74.63;100645.56;6321720;22;45246;-95
2022/08/02 10:09:05;;;;;;;;;3.00;3.00;;;;;32.21;74.91;100612.13;6292292;22;46119;-96
2022/08/02 10:11:32;;;;;;;;;2.00;2.00;;;;;33.81;73.65;100948.81;6288332;22;45341;-95
2022/08/02 10:14:01;;;;;;;;;3.00;3.00;;;;;35.27;72.29;101063.06;6283593;22;45516;-96
2022/08/02 10:16:26;;;;;;;;;1.67;1.67;;;;;36.56;70.72;101158.75;6293945;22;47523;-96
2022/08/02 10:18:54;;;;;;;;;2.00;2.00;;;;;37.93;68.65;101240.03;6270686;22;45472;-95
2022/08/02 10:21:32;;;;;;;;;1.00;1.00;;;;;39.11;67.74;101274.41;6300398;22;45278;-96
2022/08/02 10:24:16;;;;;;;;;3.00;3.00;;;;;40.44;65.25;101357.72;6313498;22;45268;-96
2022/08/02 10:26:43;;;;;;;;;2.00;2.00;;;;;41.38;61.94;101407.75;6277884;22;47117;-96
2022/08/02 10:29:09;;;;;;;;;1.00;1.00;;;;;41.91;61.43;101433.13;6278720;22;45292;-95
2022/08/02 10:31:46;;;;;;;;;3.00;2.00;;;;;42.24;58.59;101456.28;6278899;22;45249;-96
2022/08/02 10:34:16;;;;;;;;;2.00;2.00;;;;;42.40;58.18;101455.91;6284357;22;45313;-96
2022/08/02 10:36:43;;;;;;;;;3.00;3.00;;;;;42.62;56.49;101467.13;6286478;22;47168;-96
2022/08/02 10:39:10;;;;;;;;;1.00;1.00;;;;;43.08;56.74;101469.88;6288472;22;45459;-96
2022/08/02 10:41:44;;;;;;;;;1.00;1.00;;;;;43.52;56.00;101483.72;6280289;22;45265;-96
2022/08/02 10:44:28;;;;;;;;;2.00;2.00;;;;;43.74;53.29;101494.81;6284953;22;45481;-94
2022/08/02 10:47:12;;;;;;;;;3.00;3.00;;;;;44.06;51.86;101498.53;6286841;22;47400;-93
2022/08/02 10:49:51;;;;;;;;;2.00;2.00;;;;;44.79;52.44;101496.81;6286979;22;45269;-95
2022/08/02 10:52:17;;;;;;;;;3.00;3.00;;;;;45.99;50.96;101497.88;6287625;22;45632;-95
2022/08/02 10:54:48;;;;;;;;;4.00;3.00;;;;;47.34;50.89;101503.38;6315546;22;45437;-96
2022/08/02 10:57:33;;;;;;;;;3.00;1.00;;;;;48.82;49.08;101503.81;6286943;22;48518;-95
2022/08/02 11:00:25;;;;;;;;;1.00;1.00;;;;;50.30;46.99;101501.56;6288688;22;45550;-95
2022/08/02 11:02:55;;;;;;;;;2.00;1.00;;;;;51.71;45.24;101512.19;6291597;22;45341;-96
2022/08/02 11:05:27;;;;;;;;;1.00;1.00;;;;;52.83;44.41;101513.47;6316710;22;45346;-95
2022/08/02 11:07:53;;;;;;;;;1.67;1.67;;;;;53.83;41.08;101519.50;6287121;22;47016;-96
2022/08/02 11:10:34;;;;;;;;;3.00;2.00;;;;;54.75;41.35;101511.22;6314761;22;45378;-96
2022/08/02 11:13:05;;;;;;;;;2.00;2.00;;;;;55.53;39.54;101514.69;6285179;22;44656;-95
2022/08/02 11:15:51;;;;;;;;;2.67;2.67;;;;;56.23;38.88;101509.69;6280571;22;45330;-95
2022/08/02 11:18:17;;;;;;;;;1.00;1.00;;;;;56.77;38.18;101511.47;6306149;22;45997;-96
2022/08/02 11:20:43;;;;;;;;;1.33;1.33;;;;;57.19;37.16;101507.31;6307537;22;45351;-96
2022/08/02 11:23:37;;;;;;;;;3.00;3.00;;;;;57.80;36.34;101506.84;6279466;22;45249;-96
2022/08/02 11:26:28;;;;;;;;;2.00;0.67;;;;;58.42;34.48;101501.41;6279671;22;45329;-96
2022/08/02 11:28:54;;;;;;;;;0.67;0.67;;;;;58.86;33.32;101508.91;6279137;22;47582;-95
2022/08/02 11:31:20;;;;;;;;;1.00;1.00;;;;;59.23;33.33;101495.75;6279716;22;45405;-95
2022/08/02 11:33:48;;;;;;;;;2.67;0.67;;;;;59.64;32.48;101512.03;6279105;22;45449;-95
2022/08/02 11:36:14;;;;;;;;;0.67;0.00;;;;;59.95;32.47;101489.28;6280249;22;45366;-94